Hit Tracker is now ESPN Home Run Tracker! Hit Tracker founder Greg Rybarczyk is now collaborating with the ESPN Stats & Information Group to continue tracking all MLB home runs, and helping baseball fans know "How Far It Really Went!™" Please credit any information on this site to ESPN Stats & Information Group. For more information and analysis on home runs, please contact founder Greg Rybarczyk. E-Mail ESPN Home Run Tracker
Main Page | Ballparks | Park Overlays | Glossary | Highlight Homers | Feedback | Bio | 3 Types of HR's | AAA Home Run Derby Last Updated: September 20, 2014, 9:44 pm PST
Welcome to the ESPN Home Run Tracker! Check out the ESPN MLB Scoreboard throughout the 2014 season! Contact us at grybar@hittrackeronline.com.
Season:
Ballpark detail for AT&T Park
Ballpark # of Home Runs HR per game Avg.
True
Distance
Avg.
Speed
Off
Bat
Avg.
Std.
Dist.
AT&T Park 99 1.29 393.9 102.3 387.2

Scatter Plot of Home Runs AT&T Park
 Overlay Ballpark:
Without range rings   With range rings

2014 Season Home Runs for AT&T Park
Click headers to sort
Date Video Path Hitter Hitter
Team
Pitcher Pitcher
Team
INN Ballpark ^ Type/
Luck
True
Dist.
Speed
Off
Bat
Elev.
Angle
Horiz.
Angle
Apex Impact Due To: Std.
Dist.
#
Parks
Wind Temp. Alt.
05/26/14 Video View Sandoval, Pablo SF Samardzija, Jeff CHC 4 AT&T Park JE 406 108.3 24.1 69.6 68 2 0 0 404 30
05/26/14 Video View Schierholtz, Nate CHC Petit, Yusmeiro SF 3 AT&T Park PL 430 107.1 23.9 83.5 76 1 0 0 429 26
05/25/14 Video View Pence, Hunter SF Nolasco, Ricky MIN 3 AT&T Park PL 433 107.1 25.0 97.9 84 2 0 0 432 30
05/24/14 Video View Pinto, Josmil MIN Romo, Sergio SF 9 AT&T Park JE 357 105.6 23.1 126.4 53 0 -1 0 357 22
05/24/14 Video View Sandoval, Pablo SF Deduno, Samuel MIN 2 AT&T Park JE 383 102.5 23.8 104.2 64 1 -1 0 382 7
05/23/14 Video View Sandoval, Pablo SF Gibson, Kyle MIN 1 AT&T Park PL 381 99.8 31.5 67.6 97 5 -2 0 379 29
05/23/14 Video View Hicks, Brandon SF Gibson, Kyle MIN 4 AT&T Park PL 388 106.1 25.5 117.2 69 1 -1 0 388 30
04/08/14 Video View Belt, Brandon SF Cahill, Trevor ARI 1 AT&T Park PL/L 393 100.1 35.7 73.9 124 16 1 0 376 24
04/09/14 Video View Goldschmidt, Paul ARI Lincecum, Tim SF 1 AT&T Park JE 340 93.3 34.3 57.4 88 6 -2 0 336 7
04/09/14 Video View Morse, Michael SF Arroyo, Bronson ARI 2 AT&T Park ND 449 110.0 27.5 102.9 101 7 -2 0 445 30
04/09/14 Video View Parra, Gerardo ARI Lincecum, Tim SF 4 AT&T Park JE 362 97.5 29.4 62.2 75 6 -1 0 358 19
04/09/14 Video View Posey, Buster SF Arroyo, Bronson ARI 5 AT&T Park PL 379 109.0 22.8 120.9 56 1 -1 0 379 30
04/11/14 Video View Gonzalez, Carlos COL Bumgarner, Madison SF 3 AT&T Park ND 403 107.4 27.9 59.4 81 4 -2 0 401 30
04/11/14 Video View Bumgarner, Madison SF De La Rosa, Jorge COL 4 AT&T Park ND 415 103.7 30.6 105.9 104 10 -4 0 408 30
04/13/14 Video View Morneau, Justin COL Hudson, Tim SF 7 AT&T Park JE 414 105.2 23.7 98.6 73 2 -1 0 412 21
04/13/14 Video View Sandoval, Pablo SF Chatwood, Tyler COL 6 AT&T Park ND 439 111.5 27.6 68.9 95 3 -1 0 437 30
04/13/14 Video View Crawford, Brandon SF Brothers, Rex COL 10 AT&T Park ND 381 101.7 31.6 59.5 93 3 -1 0 379 30
04/13/14 Video View Rosario, Wilin COL Hudson, Tim SF 2 AT&T Park ND 413 109.7 24.6 111.5 73 1 -1 0 413 30
04/15/14 Video View Uribe, Juan LAD Lincecum, Tim SF 2 AT&T Park ND 413 104.5 30.3 106.6 105 5 -3 0 411 30
04/25/14 Video View Morse, Michael SF Carrasco, Carlos CLE 4 AT&T Park PL 442 105.8 27.3 80.1 82 16 -2 0 426 30
04/26/14 Video View Posey, Buster SF Lee, C.C. CLE 6 AT&T Park ND 420 103.0 32.7 109.4 107 26 -3 0 396 30
04/27/14 Video View Gomes, Yan CLE Casilla, Santiago SF 8 AT&T Park PL 409 101.4 31.5 103.4 106 12 -2 0 399 30
04/27/14 Video View Hicks, Brandon SF Allen, Cody CLE 9 AT&T Park PL 386 96.9 35.5 106.9 114 24 -3 0 363 2
04/28/14 Video View Hicks, Brandon SF Ross, Tyson SD 5 AT&T Park JE/L 412 101.1 32.6 92.9 121 9 -3 0 405 12
04/28/14 Video View Rivera, Rene SD Bumgarner, Madison SF 5 AT&T Park JE 410 101.2 29.0 98.1 99 5 -2 0 406 21
04/29/14 Video View Pagan, Angel SF Stults, Eric SD 1 AT&T Park PL/L 390 106.8 26.8 127.5 69 4 0 0 385 30
04/29/14 Video View Posey, Buster SF Stults, Eric SD 1 AT&T Park PL 414 103.4 26.5 101.2 80 5 0 0 409 28
04/30/14 Video View Hicks, Brandon SF Erlin, Robbie SD 2 AT&T Park JE 351 94.3 31.6 61.5 79 6 1 0 344 6
04/30/14 Video View Grandal, Yasmani SD Hudson, Tim SF 9 AT&T Park ND 407 104.5 31.5 64.6 101 8 1 0 398 30
05/12/14 Video View Colvin, Tyler SF Floyd, Gavin ATL 2 AT&T Park ND 405 103.7 30.2 65.1 91 10 -1 0 395 30
05/12/14 Video View Upton, B.J. ATL Lincecum, Tim SF 5 AT&T Park JE 371 103.2 25.3 118.7 62 2 0 0 369 22
05/12/14 Video View Freeman, Freddie ATL Lopez, Javier SF 9 AT&T Park ND 410 108.7 26.4 63.1 77 3 -1 0 407 30
05/14/14 Video View Pence, Hunter SF Teheran, Julio ATL 1 AT&T Park JE 421 104.6 28.0 77.2 93 3 2 0 417 29
05/14/14 Video View Morse, Michael SF Wood, Alex ATL 6 AT&T Park ND 404 111.2 23.5 117.6 62 2 1 0 401 30
05/14/14 Video View Crawford, Brandon SF Carpenter, David ATL 8 AT&T Park ND 382 101.5 29.7 59.5 81 4 1 0 376 30
05/15/14 Video View Dietrich, Derek MIA Cain, Matt SF 1 AT&T Park JE 361 99.8 28.0 55.4 67 4 0 0 357 28
05/15/14 Video View Jones, Garrett MIA Cain, Matt SF 2 AT&T Park JE/L 387 97.7 35.8 71.6 113 25 -2 0 363 18
05/15/14 Video View Morse, Michael SF Eovaldi, Nathan MIA 3 AT&T Park JE 349 93.9 32.5 61.9 83 7 -2 0 343 5
05/16/14 Video View Yelich, Christian MIA Petit, Yusmeiro SF 1 AT&T Park PL 436 111.1 21.0 84.7 69 -1 -1 0 437 27
05/16/14 Video View Dietrich, Derek MIA Petit, Yusmeiro SF 3 AT&T Park JE 387 102.3 27.4 67.1 76 3 -1 0 384 30
05/17/14 Video View Stanton, Giancarlo MIA Huff, David SF 7 AT&T Park PL 430 106.4 24.6 83.7 79 2 -1 0 428 26
05/18/14 Video View Sandoval, Pablo SF Turner, Jacob MIA 5 AT&T Park JE 400 103.2 24.7 102.2 70 3 -1 0 398 20
06/06/14 Video View Posey, Buster SF Torres, Carlos NYM 8 AT&T Park PL 416 102.0 28.3 98.5 90 9 -2 0 409 23
06/06/14 Video View Murphy, Daniel NYM Cain, Matt SF 7 AT&T Park JE 391 98.4 32.5 68.5 94 21 -3 -3 372 22
06/08/14 Video View Granderson, Curtis NYM Lincecum, Tim SF 1 AT&T Park PL 439 107.3 25.1 86.1 92 0 0 0 439 29
06/08/14 Video View Granderson, Curtis NYM Lincecum, Tim SF 6 AT&T Park ND 402 104.5 32.1 61.0 101 7 1 0 394 30
06/11/14 Video View Werth, Jayson WSH Cain, Matt SF 5 AT&T Park PL 381 97.1 30.9 107.1 89 11 -2 0 372 9
06/14/14 Video View Pence, Hunter SF Bergman, Christian COL 1 AT&T Park JE 412 101.2 32.3 97.7 117 8 1 0 403 20
06/14/14 Video View Posey, Buster SF Bergman, Christian COL 5 AT&T Park PL 393 99.7 31.8 119.0 86 23 -1 0 371 27
06/14/14 Video View Barnes, Brandon COL Romo, Sergio SF 9 AT&T Park ITP/L 304 101.6 15.8 83.7 29 -5 0 0 309 0
06/15/14 Video View Tulowitzki, Troy COL Bumgarner, Madison SF 3 AT&T Park JE 393 99.9 27.4 104.8 75 9 -1 0 385 13
06/15/14 Video View Sanchez, Hector SF Morales, Franklin COL 4 AT&T Park JE 369 98.4 35.2 106.0 123 0 -2 0 371 17
06/15/14 Video View Sandoval, Pablo SF Morales, Franklin COL 4 AT&T Park PL 375 102.9 27.0 121.5 69 3 -1 0 373 30
06/15/14 Video View Bumgarner, Madison SF Morales, Franklin COL 5 AT&T Park PL 404 100.6 29.7 99.1 100 3 -2 0 401 20
06/24/14 Video View Medica, Tommy SD Lopez, Javier SF 8 AT&T Park JE 373 96.3 33.3 107.4 104 9 -3 0 366 3
06/26/14 Video View Phillips, Brandon CIN Machi, Jean SF 7 AT&T Park PL 400 102.2 25.8 101.7 77 2 -1 0 398 22
06/26/14 Video View Duvall, Adam SF Leake, Mike CIN 7 AT&T Park PL 394 101.2 29.6 108.6 91 5 -2 0 391 30
06/28/14 Video View Phillips, Brandon CIN Romo, Sergio SF 9 AT&T Park PL 411 102.3 31.5 104.2 110 11 -2 0 402 30
07/01/14 Video View Sandoval, Pablo SF Gonzales, Marco STL 4 AT&T Park JE/L 359 95.3 38.4 118.5 113 27 -4 0 335 2
07/03/14 Video View Peralta, Jhonny STL Bumgarner, Madison SF 1 AT&T Park JE/L 382 97.1 35.5 103.6 117 17 -3 0 367 2
07/09/14 Video View Pence, Hunter SF Hammel, Jason OAK 4 AT&T Park PL 425 104.0 26.7 90.9 96 1 -1 0 425 26
07/09/14 Video View Vogt, Stephen OAK Cain, Matt SF 4 AT&T Park PL 408 103.8 31.1 70.6 105 7 -3 0 403 30
07/10/14 Video View Donaldson, Josh OAK Hudson, Tim SF 6 AT&T Park JE 343 93.4 35.3 63.3 99 3 -1 0 340 4
07/11/14 Video View Sandoval, Pablo SF Bolsinger, Mike ARI 1 AT&T Park PL 404 102.4 31.8 70.3 104 11 -2 0 395 30
07/12/14 Video View Hill, Aaron ARI Vogelsong, Ryan SF 4 AT&T Park PL 383 96.5 32.2 109.3 89 19 -1 0 366 15
07/13/14 Video View Posey, Buster SF Nuno, Vidal ARI 5 AT&T Park ND 419 105.4 28.4 107.8 92 7 -1 0 412 30
07/13/14 Video View Bumgarner, Madison SF Stites, Matt ARI 6 AT&T Park PL 387 108.4 24.3 122.4 62 2 0 0 385 30
07/13/14 Video View Ross, Cody ARI Bumgarner, Madison SF 7 AT&T Park PL 382 100.3 33.4 118.7 100 10 -1 0 373 30
07/27/14 Video View Posey, Buster SF Ryu, Hyun-Jin LAD 5 AT&T Park PL 390 104.1 25.6 111.5 69 2 -1 0 388 30
07/28/14 Video View Harrison, Josh PIT Bumgarner, Madison SF 2 AT&T Park PL 372 100.2 29.3 120.5 77 5 -1 0 368 30
07/29/14 Video View Harrison, Josh PIT Hudson, Tim SF 1 AT&T Park JE 349 96.5 29.3 58.7 71 3 -1 0 347 13
07/29/14 Video View Snider, Travis PIT Hudson, Tim SF 2 AT&T Park JE 334 92.7 34.5 60.2 92 0 -1 0 335 7
07/29/14 Video View Morse, Michael SF Liriano, Francisco PIT 2 AT&T Park JE 381 105.8 21.9 105.9 56 0 0 0 381 5
07/30/14 Video View Harrison, Josh PIT Lincecum, Tim SF 3 AT&T Park JE 391 99.4 28.0 102.4 84 3 0 0 388 14
07/30/14 Video View Mercer, Jordy PIT Lincecum, Tim SF 4 AT&T Park JE 371 97.0 31.7 107.1 98 0 0 0 371 17
08/12/14 Video View Dunn, Adam CHW Vogelsong, Ryan SF 1 AT&T Park PL 416 104.1 25.3 96.9 83 1 -1 0 416 28
08/13/14 Video View Dunn, Adam CHW Peavy, Jake SF 4 AT&T Park ND 386 100.5 33.3 59.3 96 14 0 0 372 30
08/15/14 Video View Morse, Michael SF Hamels, Cole PHI 4 AT&T Park PL 410 109.2 21.4 100.9 62 0 0 0 411 28
08/15/14 Video View Byrd, Marlon PHI Bumgarner, Madison SF 5 AT&T Park JE 367 99.8 25.8 111.4 65 2 -1 0 365 6
08/15/14 Video View Asche, Cody PHI Affeldt, Jeremy SF 8 AT&T Park JE/L 380 99.9 37.5 70.6 131 20 -4 0 363 18
08/16/14 Video View Pence, Hunter SF Kendrick, Kyle PHI 1 AT&T Park PL 411 101.6 29.9 100.0 102 5 0 0 406 28
08/25/14 Video View Susac, Andrew SF Matzek, Tyler COL 2 AT&T Park JE 420 105.2 23.6 86.2 78 0 0 0 420 22
08/26/14 Video View Posey, Buster SF De La Rosa, Jorge COL 6 AT&T Park PL 413 103.1 27.4 100.0 92 2 -1 0 412 30
08/26/14 Video View Posey, Buster SF Brown, Brooks COL 8 AT&T Park PL 401 105.2 26.8 111.7 78 3 -1 0 399 30
08/27/14 Video View Dickerson, Corey COL Hudson, Tim SF 5 AT&T Park PL 380 104.5 26.5 58.5 69 2 -1 0 379 30
08/27/14 Video View Posey, Buster SF Nicasio, Juan COL 9 AT&T Park PL 376 101.0 31.4 119.2 93 0 -2 0 377 30
08/28/14 Video View Blanco, Gregor SF Lyles, Jordan COL 2 AT&T Park PL 359 98.3 31.2 56.5 83 1 0 0 359 29
08/29/14 Video View Blanco, Gregor SF Estrada, Marco MIL 5 AT&T Park PL 350 95.0 34.7 63.8 100 3 -2 0 348 18
08/31/14 Video View Sandoval, Pablo SF Lohse, Kyle MIL 5 AT&T Park PL 372 101.7 37.5 63.5 132 8 0 0 364 28
08/31/14 Video View Maldonado, Martin MIL Kontos, George SF 7 AT&T Park ND 427 109.7 28.8 113.5 99 1 0 0 426 30
08/31/14 Video View Braun, Ryan MIL Lincecum, Tim SF 8 AT&T Park PL 385 97.7 30.9 106.0 92 8 0 0 377 16
09/09/14 Video View Inciarte, Ender ARI Petit, Yusmeiro SF 4 AT&T Park ND 391 101.5 32.7 53.3 88 21 -3 0 373 30
09/11/14 Video View Lamb, Jake ARI Casilla, Santiago SF 9 AT&T Park JE 417 101.1 27.1 92.9 78 9 -1 0 408 11
09/12/14 Video View Crawford, Brandon SF Frias, Carlos LAD 5 AT&T Park JE 399 103.8 27.1 65.4 71 12 -1 0 388 29
09/12/14 Video View Ishikawa, Travis SF Correia, Kevin LAD 7 AT&T Park ND 388 99.0 40.4 55.3 122 55 -6 0 336 10
09/13/14 Video View Uribe, Juan LAD Lincecum, Tim SF 4 AT&T Park PL 375 96.5 36.6 122.5 102 32 -4 0 346 10
09/13/14 Video View Greinke, Zack LAD Kickham, Michael SF 6 AT&T Park PL 415 109.9 21.1 100.6 71 3 -1 0 414 30
09/13/14 Video View Van Slyke, Scott LAD Bochy, Brett SF 7 AT&T Park ND 424 104.4 32.5 120.5 96 35 -4 0 391 30
09/14/14 Video View Kemp, Matt LAD Petit, Yusmeiro SF 6 AT&T Park PL 437 102.2 30.5 98.2 95 27 -2 0 411 23


About HitTracker | Contact Us
© 2006-2009 HitTrackerOnline